Currently 62°F in Simi Valley, California, USA
62°F
69°F / 61°F
calm
0.00"
Friday, July 30, 2021 6:06 AM PDT

Simi Valley, California Weather Summary
Last 36 Hours

Temperature Winds Hourly Humidity Dewpoint
Time Report Norm Report Norm Max Gusts Precip. Rpt. Norm Rpt. Norm Pressure
1Fri 06:06 AM  61.8°F  62°F  calm  1 mph  none  0.00"  79%  74%  55°F  54°F  29.84"
Fri 06:00 AM  61.9°F  63°F  calm  1 mph  3 mph  0.00"  79%  74%  55°F  54°F  29.84"
Fri 05:00 AM  62.3°F  63°F  2 mph NW  1 mph  3 mph  0.00"  76%  72%  54°F  54°F  29.84"
Fri 04:00 AM  61.3°F  64°F  calm  1 mph  4 mph  0.00"  73%  71%  52°F  54°F  29.84"
3Fri 03:56 AM  61.2°F  64°F  calm  1 mph  4 mph  ----  73%  71%  52°F  54°F  29.84"
Fri 03:00 AM  63.4°F  65°F  calm  1 mph  4 mph  0.00"  78%  69%  56°F  54°F  29.84"
Fri 02:00 AM  64.9°F  66°F  2 mph NW  1 mph  3 mph  0.00"  76%  68%  57°F  55°F  29.84"
Fri 01:00 AM  67.2°F  67°F  2 mph NW  1 mph  4 mph  0.00"  71%  67%  57°F  55°F  29.84"
2Fri 12:00 AM  69.4°F  68°F  2 mph NW  1 mph  4 mph  0.00"  65%  66%  57°F  55°F  29.84"
Thu 11:00 PM  70.3°F  69°F  3 mph N  1 mph  3 mph  0.00"  59%  65%  55°F  56°F  29.84"
Thu 10:00 PM  71.2°F  71°F  calm  1 mph  5 mph  0.00"  60%  63%  56°F  57°F  29.84"
Thu 09:00 PM  72.4°F  73°F  2 mph NW  2 mph  6 mph  0.00"  59%  61%  57°F  58°F  29.83"
Thu 08:00 PM  75.4°F  76°F  2 mph W  3 mph  9 mph  0.00"  55%  56%  58°F  58°F  29.81"
Thu 07:00 PM  82.4°F  80°F  5 mph SE  5 mph  11 mph  0.00"  42%  48%  56°F  58°F  29.80"
Thu 06:00 PM  85.6°F  82°F  4 mph W  6 mph  12 mph  0.00"  34%  45%  53°F  58°F  29.79"
Thu 05:00 PM  86.1°F  84°F  7 mph NW  6 mph  14 mph  0.00"  30%  43%  50°F  58°F  29.80"
Thu 04:00 PM  86.4°F  85°F  5 mph NW  7 mph  15 mph  0.00"  28%  42%  49°F  59°F  29.82"
Thu 03:00 PM  87.1°F  86°F  8 mph NW  7 mph  14 mph  0.00"  32%  41%  53°F  59°F  29.83"
Thu 02:00 PM  87.4°F  86°F  7 mph NW  7 mph  17 mph  0.00"  35%  41%  56°F  59°F  29.84"
Thu 01:00 PM  87.2°F  86°F  7 mph W  7 mph  16 mph  0.00"  32%  42%  53°F  59°F  29.85"
Thu 12:00 PM  85.8°F  84°F  7 mph NW  6 mph  12 mph  0.00"  32%  44%  52°F  59°F  29.86"
Thu 11:00 AM  83.4°F  81°F  4 mph NW  4 mph  10 mph  0.00"  38%  48%  54°F  59°F  29.87"
Thu 10:00 AM  80.1°F  77°F  1 mph W  3 mph  7 mph  0.00"  40%  57%  53°F  60°F  29.87"
Thu 09:00 AM  74.4°F  71°F  2 mph W  2 mph  3 mph  0.00"  48%  66%  53°F  59°F  29.88"
Thu 08:00 AM  66.2°F  67°F  calm  calm  1 mph  0.00"  62%  73%  52°F  57°F  29.89"
Thu 07:00 AM  63.1°F  63°F  calm  1 mph  2 mph  0.00"  63%  75%  50°F  54°F  29.89"
Thu 06:00 AM  63.3°F  63°F  calm  1 mph  none  0.00"  59%  74%  48°F  54°F  29.88"
Thu 05:00 AM  64.4°F  63°F  calm  1 mph  2 mph  0.00"  56%  73%  48°F  54°F  29.87"
Thu 04:00 AM  65.9°F  64°F  calm  1 mph  4 mph  0.00"  53%  71%  48°F  54°F  29.87"
Thu 03:00 AM  67.1°F  65°F  calm  1 mph  5 mph  0.00"  56%  70%  50°F  54°F  29.87"
Thu 02:00 AM  68.0°F  66°F  calm  1 mph  6 mph  0.00"  51%  69%  48°F  55°F  29.88"
Thu 01:00 AM  68.4°F  67°F  calm  1 mph  4 mph  0.00"  51%  68%  49°F  55°F  29.89"
Thu 12:00 AM  69.5°F  68°F  calm  2 mph  4 mph  0.00"  53%  66%  51°F  56°F  29.91"
Wed 11:00 PM  70.3°F  69°F  2 mph NE  1 mph  5 mph  0.00"  54%  65%  52°F  57°F  29.91"
Wed 10:00 PM  72.5°F  71°F  calm  1 mph  5 mph  0.00"  59%  64%  57°F  57°F  29.92"
Wed 09:00 PM  75.0°F  73°F  1 mph NW  2 mph  6 mph  0.00"  53%  61%  56°F  58°F  29.91"
Wed 08:00 PM  78.3°F  76°F  1 mph NW  3 mph  8 mph  0.00"  43%  56%  53°F  58°F  29.89"
Wed 07:00 PM  83.6°F  80°F  5 mph NW  5 mph  10 mph  0.00"  34%  48%  51°F  58°F  29.89"

  1. Current weather data. No green row appears if the current weather data is also the high or low for the current day.
  2. High temperature for the current day.
  3. Low temperature for the current day.

The Simi Valley, California weather pages are a service of WeatherCurrents.
Copyright ©2021  WeatherCurrents. All rights reserved. - Submit questions and comments - Privacy Policy

This page automatically refreshes every 10 minutes.